sensor_id;sensor_type;location;lat;lon;timestamp;P1;durP1;ratioP1;P2;durP2;ratioP2
70450;SDS011;58869;51.982;4.450;2022-07-29T00:00:05;1.76;;;1.76;;
70450;SDS011;58869;51.982;4.450;2022-07-29T00:02:32;1.81;;;1.81;;
70450;SDS011;58869;51.982;4.450;2022-07-29T00:04:59;1.73;;;1.73;;
70450;SDS011;58869;51.982;4.450;2022-07-29T00:07:24;1.63;;;1.63;;
70450;SDS011;58869;51.982;4.450;2022-07-29T00:09:50;1.50;;;1.50;;
70450;SDS011;58869;51.982;4.450;2022-07-29T00:12:15;1.66;;;1.66;;
70450;SDS011;58869;51.982;4.450;2022-07-29T00:14:41;1.69;;;1.69;;
70450;SDS011;58869;51.982;4.450;2022-07-29T00:17:06;1.85;;;1.85;;
70450;SDS011;58869;51.982;4.450;2022-07-29T00:19:32;1.83;;;1.83;;
70450;SDS011;58869;51.982;4.450;2022-07-29T00:21:59;1.69;;;1.69;;
70450;SDS011;58869;51.982;4.450;2022-07-29T00:24:25;1.84;;;1.84;;
70450;SDS011;58869;51.982;4.450;2022-07-29T00:26:50;2.07;;;2.07;;
70450;SDS011;58869;51.982;4.450;2022-07-29T00:29:15;2.74;;;2.72;;
70450;SDS011;58869;51.982;4.450;2022-07-29T00:31:41;2.16;;;2.15;;
70450;SDS011;58869;51.982;4.450;2022-07-29T00:34:06;2.63;;;2.60;;
70450;SDS011;58869;51.982;4.450;2022-07-29T00:36:52;2.67;;;2.63;;
70450;SDS011;58869;51.982;4.450;2022-07-29T00:39:17;2.10;;;2.08;;
70450;SDS011;58869;51.982;4.450;2022-07-29T00:41:43;1.91;;;1.90;;
70450;SDS011;58869;51.982;4.450;2022-07-29T00:44:08;1.97;;;1.97;;
70450;SDS011;58869;51.982;4.450;2022-07-29T00:46:33;2.06;;;2.06;;
70450;SDS011;58869;51.982;4.450;2022-07-29T00:48:59;1.89;;;1.89;;
70450;SDS011;58869;51.982;4.450;2022-07-29T00:51:25;1.91;;;1.91;;
70450;SDS011;58869;51.982;4.450;2022-07-29T00:53:51;2.04;;;2.04;;
70450;SDS011;58869;51.982;4.450;2022-07-29T00:56:18;1.86;;;1.86;;
70450;SDS011;58869;51.982;4.450;2022-07-29T00:58:43;1.99;;;1.99;;
70450;SDS011;58869;51.982;4.450;2022-07-29T01:01:11;1.69;;;1.69;;
70450;SDS011;58869;51.982;4.450;2022-07-29T01:03:37;1.93;;;1.93;;
70450;SDS011;58869;51.982;4.450;2022-07-29T01:06:02;1.95;;;1.95;;
70450;SDS011;58869;51.982;4.450;2022-07-29T01:08:28;1.79;;;1.79;;
70450;SDS011;58869;51.982;4.450;2022-07-29T01:10:55;2.04;;;2.04;;
70450;SDS011;58869;51.982;4.450;2022-07-29T01:13:21;1.80;;;1.80;;
70450;SDS011;58869;51.982;4.450;2022-07-29T01:15:49;1.93;;;1.93;;
70450;SDS011;58869;51.982;4.450;2022-07-29T01:18:22;1.86;;;1.86;;
70450;SDS011;58869;51.982;4.450;2022-07-29T01:21:05;1.81;;;1.81;;
70450;SDS011;58869;51.982;4.450;2022-07-29T01:34:25;2.02;;;2.02;;
70450;SDS011;58869;51.982;4.450;2022-07-29T01:37:04;1.79;;;1.79;;
70450;SDS011;58869;51.982;4.450;2022-07-29T01:39:33;1.95;;;1.95;;
70450;SDS011;58869;51.982;4.450;2022-07-29T01:45:13;2.03;;;2.03;;
70450;SDS011;58869;51.982;4.450;2022-07-29T01:47:59;1.91;;;1.91;;
70450;SDS011;58869;51.982;4.450;2022-07-29T01:50:35;1.94;;;1.94;;
70450;SDS011;58869;51.982;4.450;2022-07-29T01:53:10;1.86;;;1.86;;
70450;SDS011;58869;51.982;4.450;2022-07-29T01:55:38;1.90;;;1.90;;
70450;SDS011;58869;51.982;4.450;2022-07-29T01:58:07;1.88;;;1.88;;
70450;SDS011;58869;51.982;4.450;2022-07-29T02:00:34;1.92;;;1.92;;
70450;SDS011;58869;51.982;4.450;2022-07-29T02:03:04;1.92;;;1.92;;
70450;SDS011;58869;51.982;4.450;2022-07-29T02:05:34;1.89;;;1.89;;
70450;SDS011;58869;51.982;4.450;2022-07-29T02:08:03;2.09;;;2.09;;
70450;SDS011;58869;51.982;4.450;2022-07-29T02:10:31;2.08;;;2.08;;
70450;SDS011;58869;51.982;4.450;2022-07-29T02:12:59;1.92;;;1.92;;
70450;SDS011;58869;51.982;4.450;2022-07-29T02:15:28;1.89;;;1.89;;
70450;SDS011;58869;51.982;4.450;2022-07-29T02:18:11;1.82;;;1.82;;
70450;SDS011;58869;51.982;4.450;2022-07-29T02:20:40;2.12;;;2.12;;
70450;SDS011;58869;51.982;4.450;2022-07-29T02:23:17;2.09;;;2.09;;
70450;SDS011;58869;51.982;4.450;2022-07-29T02:25:44;2.10;;;2.10;;
70450;SDS011;58869;51.982;4.450;2022-07-29T02:28:14;2.09;;;2.09;;
70450;SDS011;58869;51.982;4.450;2022-07-29T02:30:41;2.01;;;2.01;;
70450;SDS011;58869;51.982;4.450;2022-07-29T02:33:10;1.98;;;1.98;;
70450;SDS011;58869;51.982;4.450;2022-07-29T02:35:39;1.99;;;1.99;;
70450;SDS011;58869;51.982;4.450;2022-07-29T02:38:07;2.27;;;2.27;;
70450;SDS011;58869;51.982;4.450;2022-07-29T02:40:54;2.02;;;2.02;;
70450;SDS011;58869;51.982;4.450;2022-07-29T02:43:22;2.05;;;2.05;;
70450;SDS011;58869;51.982;4.450;2022-07-29T02:45:50;2.13;;;2.13;;
70450;SDS011;58869;51.982;4.450;2022-07-29T02:48:18;2.14;;;2.14;;
70450;SDS011;58869;51.982;4.450;2022-07-29T02:50:54;2.12;;;2.12;;
70450;SDS011;58869;51.982;4.450;2022-07-29T02:53:33;2.35;;;2.35;;
70450;SDS011;58869;51.982;4.450;2022-07-29T02:56:04;1.92;;;1.92;;
70450;SDS011;58869;51.982;4.450;2022-07-29T02:58:34;2.17;;;2.17;;
70450;SDS011;58869;51.982;4.450;2022-07-29T03:01:08;2.21;;;2.21;;
70450;SDS011;58869;51.982;4.450;2022-07-29T03:03:38;2.25;;;2.25;;
70450;SDS011;58869;51.982;4.450;2022-07-29T03:06:07;2.15;;;2.15;;
70450;SDS011;58869;51.982;4.450;2022-07-29T03:08:34;1.93;;;1.93;;
70450;SDS011;58869;51.982;4.450;2022-07-29T03:11:00;2.15;;;2.15;;
70450;SDS011;58869;51.982;4.450;2022-07-29T03:13:26;1.95;;;1.95;;
70450;SDS011;58869;51.982;4.450;2022-07-29T03:15:53;2.30;;;2.30;;
70450;SDS011;58869;51.982;4.450;2022-07-29T03:18:20;2.12;;;2.12;;
70450;SDS011;58869;51.982;4.450;2022-07-29T03:20:46;2.03;;;2.03;;
70450;SDS011;58869;51.982;4.450;2022-07-29T03:23:12;2.24;;;2.24;;
70450;SDS011;58869;51.982;4.450;2022-07-29T03:25:44;2.14;;;2.14;;
70450;SDS011;58869;51.982;4.450;2022-07-29T03:28:10;2.49;;;2.49;;
70450;SDS011;58869;51.982;4.450;2022-07-29T03:30:35;2.34;;;2.34;;
70450;SDS011;58869;51.982;4.450;2022-07-29T03:33:01;2.28;;;2.28;;
70450;SDS011;58869;51.982;4.450;2022-07-29T03:35:26;2.28;;;2.28;;
70450;SDS011;58869;51.982;4.450;2022-07-29T03:37:52;2.53;;;2.53;;
70450;SDS011;58869;51.982;4.450;2022-07-29T03:40:53;2.51;;;2.51;;
70450;SDS011;58869;51.982;4.450;2022-07-29T03:43:17;2.31;;;2.31;;
70450;SDS011;58869;51.982;4.450;2022-07-29T03:45:44;2.40;;;2.40;;
70450;SDS011;58869;51.982;4.450;2022-07-29T03:48:13;2.44;;;2.44;;
70450;SDS011;58869;51.982;4.450;2022-07-29T03:50:41;2.62;;;2.62;;
70450;SDS011;58869;51.982;4.450;2022-07-29T03:53:07;2.54;;;2.54;;
70450;SDS011;58869;51.982;4.450;2022-07-29T03:55:36;2.45;;;2.45;;
70450;SDS011;58869;51.982;4.450;2022-07-29T03:58:05;2.80;;;2.80;;
70450;SDS011;58869;51.982;4.450;2022-07-29T04:00:33;2.70;;;2.70;;
70450;SDS011;58869;51.982;4.450;2022-07-29T04:03:00;2.75;;;2.75;;
70450;SDS011;58869;51.982;4.450;2022-07-29T04:05:26;2.57;;;2.57;;
70450;SDS011;58869;51.982;4.450;2022-07-29T04:07:51;2.84;;;2.84;;
70450;SDS011;58869;51.982;4.450;2022-07-29T04:10:17;2.87;;;2.87;;
70450;SDS011;58869;51.982;4.450;2022-07-29T04:12:44;2.88;;;2.88;;
70450;SDS011;58869;51.982;4.450;2022-07-29T04:15:09;2.74;;;2.74;;
70450;SDS011;58869;51.982;4.450;2022-07-29T04:17:35;3.06;;;3.06;;
70450;SDS011;58869;51.982;4.450;2022-07-29T04:20:01;3.07;;;3.07;;
70450;SDS011;58869;51.982;4.450;2022-07-29T04:22:28;2.72;;;2.72;;
70450;SDS011;58869;51.982;4.450;2022-07-29T04:24:53;2.90;;;2.90;;
70450;SDS011;58869;51.982;4.450;2022-07-29T04:27:19;2.94;;;2.94;;
70450;SDS011;58869;51.982;4.450;2022-07-29T04:29:44;2.94;;;2.94;;
70450;SDS011;58869;51.982;4.450;2022-07-29T04:32:10;2.87;;;2.87;;
70450;SDS011;58869;51.982;4.450;2022-07-29T04:34:35;2.85;;;2.85;;
70450;SDS011;58869;51.982;4.450;2022-07-29T04:37:01;2.96;;;2.96;;
70450;SDS011;58869;51.982;4.450;2022-07-29T04:39:26;3.06;;;3.06;;
70450;SDS011;58869;51.982;4.450;2022-07-29T04:41:52;3.22;;;3.22;;
70450;SDS011;58869;51.982;4.450;2022-07-29T04:44:17;3.09;;;3.09;;
70450;SDS011;58869;51.982;4.450;2022-07-29T04:46:43;3.04;;;3.04;;
70450;SDS011;58869;51.982;4.450;2022-07-29T04:49:08;2.94;;;2.94;;
70450;SDS011;58869;51.982;4.450;2022-07-29T04:51:34;3.12;;;3.12;;
70450;SDS011;58869;51.982;4.450;2022-07-29T04:53:59;3.05;;;3.05;;
70450;SDS011;58869;51.982;4.450;2022-07-29T04:56:25;3.10;;;3.10;;
70450;SDS011;58869;51.982;4.450;2022-07-29T04:58:50;3.38;;;3.38;;
70450;SDS011;58869;51.982;4.450;2022-07-29T05:01:16;2.99;;;2.99;;
70450;SDS011;58869;51.982;4.450;2022-07-29T05:03:41;2.87;;;2.87;;
70450;SDS011;58869;51.982;4.450;2022-07-29T05:06:08;3.04;;;3.04;;
70450;SDS011;58869;51.982;4.450;2022-07-29T05:08:33;3.22;;;3.22;;
70450;SDS011;58869;51.982;4.450;2022-07-29T05:10:59;3.15;;;3.15;;
70450;SDS011;58869;51.982;4.450;2022-07-29T05:13:24;3.08;;;3.08;;
70450;SDS011;58869;51.982;4.450;2022-07-29T05:15:50;2.99;;;2.99;;
70450;SDS011;58869;51.982;4.450;2022-07-29T05:18:15;3.05;;;3.05;;
70450;SDS011;58869;51.982;4.450;2022-07-29T05:20:41;3.17;;;3.17;;
70450;SDS011;58869;51.982;4.450;2022-07-29T05:23:07;3.00;;;3.00;;
70450;SDS011;58869;51.982;4.450;2022-07-29T05:25:32;2.95;;;2.95;;
70450;SDS011;58869;51.982;4.450;2022-07-29T05:27:58;3.12;;;3.12;;
70450;SDS011;58869;51.982;4.450;2022-07-29T05:30:23;3.11;;;3.11;;
70450;SDS011;58869;51.982;4.450;2022-07-29T05:32:49;2.92;;;2.92;;
70450;SDS011;58869;51.982;4.450;2022-07-29T05:35:15;3.15;;;3.15;;
70450;SDS011;58869;51.982;4.450;2022-07-29T05:37:40;2.72;;;2.72;;
70450;SDS011;58869;51.982;4.450;2022-07-29T05:40:06;3.00;;;3.00;;
70450;SDS011;58869;51.982;4.450;2022-07-29T05:42:33;3.55;;;3.55;;
70450;SDS011;58869;51.982;4.450;2022-07-29T05:44:59;3.23;;;3.23;;
70450;SDS011;58869;51.982;4.450;2022-07-29T05:47:26;3.28;;;3.28;;
70450;SDS011;58869;51.982;4.450;2022-07-29T05:49:52;3.18;;;3.18;;
70450;SDS011;58869;51.982;4.450;2022-07-29T05:52:17;3.40;;;3.40;;
70450;SDS011;58869;51.982;4.450;2022-07-29T05:54:43;3.48;;;3.48;;
70450;SDS011;58869;51.982;4.450;2022-07-29T05:57:16;4.51;;;4.46;;
70450;SDS011;58869;51.982;4.450;2022-07-29T05:59:46;3.27;;;3.27;;
70450;SDS011;58869;51.982;4.450;2022-07-29T06:02:13;2.92;;;2.92;;
70450;SDS011;58869;51.982;4.450;2022-07-29T06:04:38;2.72;;;2.72;;
70450;SDS011;58869;51.982;4.450;2022-07-29T06:07:04;2.67;;;2.67;;
70450;SDS011;58869;51.982;4.450;2022-07-29T06:09:30;2.70;;;2.70;;
70450;SDS011;58869;51.982;4.450;2022-07-29T06:11:56;2.69;;;2.69;;
70450;SDS011;58869;51.982;4.450;2022-07-29T06:14:22;2.69;;;2.69;;
70450;SDS011;58869;51.982;4.450;2022-07-29T06:16:48;2.64;;;2.64;;
70450;SDS011;58869;51.982;4.450;2022-07-29T06:19:13;2.62;;;2.62;;
70450;SDS011;58869;51.982;4.450;2022-07-29T06:21:42;2.63;;;2.63;;
70450;SDS011;58869;51.982;4.450;2022-07-29T06:24:10;2.51;;;2.51;;
70450;SDS011;58869;51.982;4.450;2022-07-29T06:26:39;2.70;;;2.70;;
70450;SDS011;58869;51.982;4.450;2022-07-29T06:29:05;2.65;;;2.65;;
70450;SDS011;58869;51.982;4.450;2022-07-29T06:31:31;2.62;;;2.62;;
70450;SDS011;58869;51.982;4.450;2022-07-29T06:33:57;2.47;;;2.47;;
70450;SDS011;58869;51.982;4.450;2022-07-29T06:36:22;2.63;;;2.63;;
70450;SDS011;58869;51.982;4.450;2022-07-29T06:38:48;2.80;;;2.80;;
70450;SDS011;58869;51.982;4.450;2022-07-29T06:41:13;2.90;;;2.90;;
70450;SDS011;58869;51.982;4.450;2022-07-29T06:43:41;2.88;;;2.88;;
70450;SDS011;58869;51.982;4.450;2022-07-29T06:46:10;2.80;;;2.80;;
70450;SDS011;58869;51.982;4.450;2022-07-29T06:48:37;2.63;;;2.63;;
70450;SDS011;58869;51.982;4.450;2022-07-29T06:51:04;2.75;;;2.75;;
70450;SDS011;58869;51.982;4.450;2022-07-29T06:53:30;2.62;;;2.62;;
70450;SDS011;58869;51.982;4.450;2022-07-29T06:55:57;2.46;;;2.46;;
70450;SDS011;58869;51.982;4.450;2022-07-29T06:58:23;3.00;;;3.00;;
70450;SDS011;58869;51.982;4.450;2022-07-29T07:00:50;2.74;;;2.74;;
70450;SDS011;58869;51.982;4.450;2022-07-29T07:03:16;2.54;;;2.54;;
70450;SDS011;58869;51.982;4.450;2022-07-29T07:05:42;2.58;;;2.58;;
70450;SDS011;58869;51.982;4.450;2022-07-29T07:08:09;2.76;;;2.76;;
70450;SDS011;58869;51.982;4.450;2022-07-29T07:10:35;2.87;;;2.87;;
70450;SDS011;58869;51.982;4.450;2022-07-29T07:13:01;2.36;;;2.36;;
70450;SDS011;58869;51.982;4.450;2022-07-29T07:15:27;2.68;;;2.68;;
70450;SDS011;58869;51.982;4.450;2022-07-29T07:17:52;2.69;;;2.69;;
70450;SDS011;58869;51.982;4.450;2022-07-29T07:20:18;2.61;;;2.61;;
70450;SDS011;58869;51.982;4.450;2022-07-29T07:22:44;2.42;;;2.42;;
70450;SDS011;58869;51.982;4.450;2022-07-29T07:25:10;2.59;;;2.59;;
70450;SDS011;58869;51.982;4.450;2022-07-29T07:27:36;2.27;;;2.27;;
70450;SDS011;58869;51.982;4.450;2022-07-29T07:30:05;2.57;;;2.57;;
70450;SDS011;58869;51.982;4.450;2022-07-29T07:32:32;2.69;;;2.69;;
70450;SDS011;58869;51.982;4.450;2022-07-29T07:34:58;2.50;;;2.50;;
70450;SDS011;58869;51.982;4.450;2022-07-29T07:37:24;2.60;;;2.60;;
70450;SDS011;58869;51.982;4.450;2022-07-29T07:39:50;2.54;;;2.54;;
70450;SDS011;58869;51.982;4.450;2022-07-29T07:42:19;2.76;;;2.76;;
70450;SDS011;58869;51.982;4.450;2022-07-29T07:44:45;2.54;;;2.54;;
70450;SDS011;58869;51.982;4.450;2022-07-29T07:47:14;2.73;;;2.73;;
70450;SDS011;58869;51.982;4.450;2022-07-29T07:49:47;2.59;;;2.59;;
70450;SDS011;58869;51.982;4.450;2022-07-29T07:52:13;2.55;;;2.55;;
70450;SDS011;58869;51.982;4.450;2022-07-29T07:54:40;2.60;;;2.60;;
70450;SDS011;58869;51.982;4.450;2022-07-29T07:57:06;2.39;;;2.39;;
70450;SDS011;58869;51.982;4.450;2022-07-29T07:59:31;2.55;;;2.55;;
70450;SDS011;58869;51.982;4.450;2022-07-29T08:01:57;2.70;;;2.70;;
70450;SDS011;58869;51.982;4.450;2022-07-29T08:04:22;2.50;;;2.50;;
70450;SDS011;58869;51.982;4.450;2022-07-29T08:06:49;2.53;;;2.53;;
70450;SDS011;58869;51.982;4.450;2022-07-29T08:09:15;2.68;;;2.68;;
70450;SDS011;58869;51.982;4.450;2022-07-29T08:11:42;2.37;;;2.37;;
70450;SDS011;58869;51.982;4.450;2022-07-29T08:14:07;2.63;;;2.63;;
70450;SDS011;58869;51.982;4.450;2022-07-29T08:16:33;2.48;;;2.48;;
70450;SDS011;58869;51.982;4.450;2022-07-29T08:18:58;2.58;;;2.58;;
70450;SDS011;58869;51.982;4.450;2022-07-29T08:21:28;2.82;;;2.82;;
70450;SDS011;58869;51.982;4.450;2022-07-29T08:23:53;2.84;;;2.84;;
70450;SDS011;58869;51.982;4.450;2022-07-29T08:26:40;2.75;;;2.75;;
70450;SDS011;58869;51.982;4.450;2022-07-29T08:29:06;2.57;;;2.57;;
70450;SDS011;58869;51.982;4.450;2022-07-29T08:31:31;2.75;;;2.75;;
70450;SDS011;58869;51.982;4.450;2022-07-29T08:33:56;2.62;;;2.62;;
70450;SDS011;58869;51.982;4.450;2022-07-29T08:36:24;2.65;;;2.65;;
70450;SDS011;58869;51.982;4.450;2022-07-29T08:38:50;2.73;;;2.73;;
70450;SDS011;58869;51.982;4.450;2022-07-29T08:41:16;2.69;;;2.69;;
70450;SDS011;58869;51.982;4.450;2022-07-29T08:43:48;2.68;;;2.68;;
70450;SDS011;58869;51.982;4.450;2022-07-29T08:46:14;2.87;;;2.87;;
70450;SDS011;58869;51.982;4.450;2022-07-29T08:48:42;2.76;;;2.76;;
70450;SDS011;58869;51.982;4.450;2022-07-29T08:51:07;2.78;;;2.78;;
70450;SDS011;58869;51.982;4.450;2022-07-29T08:53:33;2.98;;;2.98;;
70450;SDS011;58869;51.982;4.450;2022-07-29T08:55:59;2.81;;;2.81;;
70450;SDS011;58869;51.982;4.450;2022-07-29T08:58:25;2.89;;;2.89;;
70450;SDS011;58869;51.982;4.450;2022-07-29T09:00:53;2.82;;;2.82;;
70450;SDS011;58869;51.982;4.450;2022-07-29T09:03:22;3.11;;;3.11;;
70450;SDS011;58869;51.982;4.450;2022-07-29T09:05:49;3.03;;;3.03;;
70450;SDS011;58869;51.982;4.450;2022-07-29T09:08:16;2.96;;;2.96;;
70450;SDS011;58869;51.982;4.450;2022-07-29T09:10:42;3.00;;;3.00;;
70450;SDS011;58869;51.982;4.450;2022-07-29T09:13:09;3.05;;;3.05;;
70450;SDS011;58869;51.982;4.450;2022-07-29T09:15:35;3.42;;;3.42;;
70450;SDS011;58869;51.982;4.450;2022-07-29T09:18:00;2.94;;;2.94;;
70450;SDS011;58869;51.982;4.450;2022-07-29T09:20:27;2.96;;;2.96;;
70450;SDS011;58869;51.982;4.450;2022-07-29T09:23:12;3.26;;;3.26;;
70450;SDS011;58869;51.982;4.450;2022-07-29T09:25:38;2.83;;;2.83;;
70450;SDS011;58869;51.982;4.450;2022-07-29T09:28:13;2.95;;;2.95;;
70450;SDS011;58869;51.982;4.450;2022-07-29T09:30:54;2.88;;;2.88;;
70450;SDS011;58869;51.982;4.450;2022-07-29T09:33:23;3.03;;;3.03;;
70450;SDS011;58869;51.982;4.450;2022-07-29T09:35:59;3.41;;;3.41;;
70450;SDS011;58869;51.982;4.450;2022-07-29T09:38:31;3.25;;;3.25;;
70450;SDS011;58869;51.982;4.450;2022-07-29T09:40:58;2.78;;;2.78;;
70450;SDS011;58869;51.982;4.450;2022-07-29T09:43:25;2.65;;;2.65;;
70450;SDS011;58869;51.982;4.450;2022-07-29T09:45:51;2.94;;;2.94;;
70450;SDS011;58869;51.982;4.450;2022-07-29T09:48:21;3.18;;;3.18;;
70450;SDS011;58869;51.982;4.450;2022-07-29T09:50:51;2.82;;;2.82;;
70450;SDS011;58869;51.982;4.450;2022-07-29T09:53:29;3.26;;;3.26;;
70450;SDS011;58869;51.982;4.450;2022-07-29T09:56:05;3.22;;;3.22;;
70450;SDS011;58869;51.982;4.450;2022-07-29T09:58:30;3.06;;;3.06;;
70450;SDS011;58869;51.982;4.450;2022-07-29T10:01:01;2.93;;;2.93;;
70450;SDS011;58869;51.982;4.450;2022-07-29T10:03:28;3.26;;;3.26;;
70450;SDS011;58869;51.982;4.450;2022-07-29T10:06:10;2.99;;;2.99;;
70450;SDS011;58869;51.982;4.450;2022-07-29T10:08:38;3.49;;;3.49;;
70450;SDS011;58869;51.982;4.450;2022-07-29T10:11:10;3.49;;;3.49;;
70450;SDS011;58869;51.982;4.450;2022-07-29T10:13:38;3.45;;;3.45;;
70450;SDS011;58869;51.982;4.450;2022-07-29T10:16:04;3.17;;;3.17;;
70450;SDS011;58869;51.982;4.450;2022-07-29T10:18:34;3.41;;;3.41;;
70450;SDS011;58869;51.982;4.450;2022-07-29T10:21:00;3.61;;;3.61;;
70450;SDS011;58869;51.982;4.450;2022-07-29T10:23:30;3.30;;;3.30;;
70450;SDS011;58869;51.982;4.450;2022-07-29T10:25:57;2.97;;;2.97;;
70450;SDS011;58869;51.982;4.450;2022-07-29T10:28:23;3.16;;;3.16;;
70450;SDS011;58869;51.982;4.450;2022-07-29T10:30:50;3.51;;;3.51;;
70450;SDS011;58869;51.982;4.450;2022-07-29T10:33:21;3.57;;;3.57;;
70450;SDS011;58869;51.982;4.450;2022-07-29T10:38:51;3.83;;;3.83;;
70450;SDS011;58869;51.982;4.450;2022-07-29T10:41:36;4.00;;;4.00;;
70450;SDS011;58869;51.982;4.450;2022-07-29T10:44:26;3.99;;;3.99;;
70450;SDS011;58869;51.982;4.450;2022-07-29T10:46:52;3.55;;;3.55;;
70450;SDS011;58869;51.982;4.450;2022-07-29T10:49:20;3.47;;;3.47;;
70450;SDS011;58869;51.982;4.450;2022-07-29T10:54:19;3.44;;;3.44;;
70450;SDS011;58869;51.982;4.450;2022-07-29T11:07:31;2.87;;;2.87;;
70450;SDS011;58869;51.982;4.450;2022-07-29T11:15:12;2.44;;;2.44;;
70450;SDS011;58869;51.982;4.450;2022-07-29T11:20:31;2.49;;;2.49;;
70450;SDS011;58869;51.982;4.450;2022-07-29T11:23:18;2.17;;;2.17;;
70450;SDS011;58869;51.982;4.450;2022-07-29T11:25:45;2.37;;;2.37;;
70450;SDS011;58869;51.982;4.450;2022-07-29T11:28:16;2.37;;;2.37;;
70450;SDS011;58869;51.982;4.450;2022-07-29T11:31:02;2.25;;;2.25;;
70450;SDS011;58869;51.982;4.450;2022-07-29T11:33:32;2.12;;;2.12;;
70450;SDS011;58869;51.982;4.450;2022-07-29T11:36:12;1.97;;;1.97;;
70450;SDS011;58869;51.982;4.450;2022-07-29T11:38:38;1.76;;;1.76;;
70450;SDS011;58869;51.982;4.450;2022-07-29T11:44:20;2.11;;;2.11;;
70450;SDS011;58869;51.982;4.450;2022-07-29T11:47:19;1.84;;;1.84;;
70450;SDS011;58869;51.982;4.450;2022-07-29T11:49:45;2.00;;;2.00;;
70450;SDS011;58869;51.982;4.450;2022-07-29T11:52:11;1.85;;;1.85;;
70450;SDS011;58869;51.982;4.450;2022-07-29T11:54:36;1.99;;;1.99;;
70450;SDS011;58869;51.982;4.450;2022-07-29T11:57:07;2.23;;;2.23;;
70450;SDS011;58869;51.982;4.450;2022-07-29T11:59:39;2.05;;;2.05;;
70450;SDS011;58869;51.982;4.450;2022-07-29T12:02:06;2.05;;;2.05;;
70450;SDS011;58869;51.982;4.450;2022-07-29T12:04:33;2.17;;;2.17;;
70450;SDS011;58869;51.982;4.450;2022-07-29T12:06:59;2.27;;;2.27;;
70450;SDS011;58869;51.982;4.450;2022-07-29T12:12:19;2.40;;;2.34;;
70450;SDS011;58869;51.982;4.450;2022-07-29T12:14:45;2.26;;;2.26;;
70450;SDS011;58869;51.982;4.450;2022-07-29T12:20:13;1.98;;;1.98;;
70450;SDS011;58869;51.982;4.450;2022-07-29T12:22:47;2.23;;;2.23;;
70450;SDS011;58869;51.982;4.450;2022-07-29T12:25:21;2.38;;;2.38;;
70450;SDS011;58869;51.982;4.450;2022-07-29T12:28:02;2.35;;;2.35;;
70450;SDS011;58869;51.982;4.450;2022-07-29T12:36:46;2.41;;;2.41;;
70450;SDS011;58869;51.982;4.450;2022-07-29T12:39:11;2.59;;;2.59;;
70450;SDS011;58869;51.982;4.450;2022-07-29T12:41:44;2.66;;;2.66;;
70450;SDS011;58869;51.982;4.450;2022-07-29T12:44:10;2.57;;;2.57;;
70450;SDS011;58869;51.982;4.450;2022-07-29T12:46:36;2.65;;;2.65;;
70450;SDS011;58869;51.982;4.450;2022-07-29T13:04:44;2.33;;;2.33;;
70450;SDS011;58869;51.982;4.450;2022-07-29T13:08:15;2.45;;;2.45;;
70450;SDS011;58869;51.982;4.450;2022-07-29T13:13:51;2.20;;;2.20;;
70450;SDS011;58869;51.982;4.450;2022-07-29T13:16:17;2.05;;;2.05;;
70450;SDS011;58869;51.982;4.450;2022-07-29T13:18:42;2.22;;;2.22;;
70450;SDS011;58869;51.982;4.450;2022-07-29T13:21:12;2.21;;;2.21;;
70450;SDS011;58869;51.982;4.450;2022-07-29T13:23:39;2.05;;;2.05;;
70450;SDS011;58869;51.982;4.450;2022-07-29T13:26:14;2.45;;;2.45;;
70450;SDS011;58869;51.982;4.450;2022-07-29T13:28:44;2.25;;;2.25;;
70450;SDS011;58869;51.982;4.450;2022-07-29T13:31:12;2.63;;;2.63;;
70450;SDS011;58869;51.982;4.450;2022-07-29T13:33:39;2.48;;;2.48;;
70450;SDS011;58869;51.982;4.450;2022-07-29T13:36:08;2.35;;;2.35;;
70450;SDS011;58869;51.982;4.450;2022-07-29T13:38:38;2.42;;;2.42;;
70450;SDS011;58869;51.982;4.450;2022-07-29T13:41:14;2.42;;;2.42;;
70450;SDS011;58869;51.982;4.450;2022-07-29T13:43:51;2.28;;;2.28;;
70450;SDS011;58869;51.982;4.450;2022-07-29T13:46:16;2.35;;;2.35;;
70450;SDS011;58869;51.982;4.450;2022-07-29T13:48:42;2.20;;;2.20;;
70450;SDS011;58869;51.982;4.450;2022-07-29T13:51:17;2.29;;;2.29;;
70450;SDS011;58869;51.982;4.450;2022-07-29T13:53:48;2.26;;;2.26;;
70450;SDS011;58869;51.982;4.450;2022-07-29T13:56:14;2.09;;;2.09;;
70450;SDS011;58869;51.982;4.450;2022-07-29T13:58:42;2.34;;;2.34;;
70450;SDS011;58869;51.982;4.450;2022-07-29T14:01:19;2.36;;;2.36;;
70450;SDS011;58869;51.982;4.450;2022-07-29T14:03:48;2.13;;;2.13;;
70450;SDS011;58869;51.982;4.450;2022-07-29T14:06:25;2.25;;;2.25;;
70450;SDS011;58869;51.982;4.450;2022-07-29T14:08:54;2.27;;;2.27;;
70450;SDS011;58869;51.982;4.450;2022-07-29T14:11:20;2.28;;;2.28;;
70450;SDS011;58869;51.982;4.450;2022-07-29T14:13:45;2.15;;;2.15;;
70450;SDS011;58869;51.982;4.450;2022-07-29T14:22:34;2.47;;;2.47;;
70450;SDS011;58869;51.982;4.450;2022-07-29T14:24:59;2.39;;;2.39;;
70450;SDS011;58869;51.982;4.450;2022-07-29T14:27:25;2.38;;;2.38;;
70450;SDS011;58869;51.982;4.450;2022-07-29T14:29:50;2.20;;;2.20;;
70450;SDS011;58869;51.982;4.450;2022-07-29T14:32:16;2.09;;;2.09;;
70450;SDS011;58869;51.982;4.450;2022-07-29T14:34:42;2.31;;;2.31;;
70450;SDS011;58869;51.982;4.450;2022-07-29T14:37:19;2.36;;;2.36;;
70450;SDS011;58869;51.982;4.450;2022-07-29T14:39:52;2.10;;;2.10;;
70450;SDS011;58869;51.982;4.450;2022-07-29T14:42:19;2.39;;;2.39;;
70450;SDS011;58869;51.982;4.450;2022-07-29T14:44:44;2.23;;;2.23;;
70450;SDS011;58869;51.982;4.450;2022-07-29T14:47:10;2.26;;;2.26;;
70450;SDS011;58869;51.982;4.450;2022-07-29T14:49:41;2.47;;;2.47;;
70450;SDS011;58869;51.982;4.450;2022-07-29T14:52:09;2.14;;;2.14;;
70450;SDS011;58869;51.982;4.450;2022-07-29T14:54:35;2.62;;;2.62;;
70450;SDS011;58869;51.982;4.450;2022-07-29T14:57:00;2.33;;;2.33;;
70450;SDS011;58869;51.982;4.450;2022-07-29T14:59:32;2.30;;;2.30;;
70450;SDS011;58869;51.982;4.450;2022-07-29T15:02:01;2.27;;;2.27;;
70450;SDS011;58869;51.982;4.450;2022-07-29T15:10:44;2.11;;;2.11;;
70450;SDS011;58869;51.982;4.450;2022-07-29T15:13:10;2.16;;;2.16;;
70450;SDS011;58869;51.982;4.450;2022-07-29T15:15:35;1.99;;;1.99;;
70450;SDS011;58869;51.982;4.450;2022-07-29T15:18:14;2.17;;;2.17;;
70450;SDS011;58869;51.982;4.450;2022-07-29T15:23:43;2.16;;;2.16;;
70450;SDS011;58869;51.982;4.450;2022-07-29T15:26:10;2.23;;;2.23;;
70450;SDS011;58869;51.982;4.450;2022-07-29T15:28:36;2.20;;;2.20;;
70450;SDS011;58869;51.982;4.450;2022-07-29T15:31:01;1.98;;;1.98;;
70450;SDS011;58869;51.982;4.450;2022-07-29T15:33:27;2.16;;;2.16;;
70450;SDS011;58869;51.982;4.450;2022-07-29T15:35:52;2.29;;;2.29;;
70450;SDS011;58869;51.982;4.450;2022-07-29T15:38:18;2.02;;;2.02;;
70450;SDS011;58869;51.982;4.450;2022-07-29T15:40:43;2.27;;;2.27;;
70450;SDS011;58869;51.982;4.450;2022-07-29T15:43:10;2.24;;;2.24;;
70450;SDS011;58869;51.982;4.450;2022-07-29T15:45:37;2.20;;;2.20;;
70450;SDS011;58869;51.982;4.450;2022-07-29T15:48:04;2.12;;;2.12;;
70450;SDS011;58869;51.982;4.450;2022-07-29T15:50:31;2.31;;;2.31;;
70450;SDS011;58869;51.982;4.450;2022-07-29T15:52:57;2.40;;;2.40;;
70450;SDS011;58869;51.982;4.450;2022-07-29T15:55:22;2.39;;;2.39;;
70450;SDS011;58869;51.982;4.450;2022-07-29T15:57:48;2.25;;;2.25;;
70450;SDS011;58869;51.982;4.450;2022-07-29T16:00:13;2.12;;;2.12;;
70450;SDS011;58869;51.982;4.450;2022-07-29T16:02:41;2.23;;;2.23;;
70450;SDS011;58869;51.982;4.450;2022-07-29T16:05:07;2.22;;;2.22;;
70450;SDS011;58869;51.982;4.450;2022-07-29T16:07:32;2.16;;;2.16;;
70450;SDS011;58869;51.982;4.450;2022-07-29T16:09:59;2.29;;;2.29;;
70450;SDS011;58869;51.982;4.450;2022-07-29T16:12:25;1.99;;;1.99;;
70450;SDS011;58869;51.982;4.450;2022-07-29T16:14:51;1.97;;;1.97;;
70450;SDS011;58869;51.982;4.450;2022-07-29T16:17:16;2.00;;;2.00;;
70450;SDS011;58869;51.982;4.450;2022-07-29T16:19:43;2.18;;;2.18;;
70450;SDS011;58869;51.982;4.450;2022-07-29T16:22:09;2.00;;;2.00;;